Weather at Lučko Airfield

Public forecast

Using degrees Celsius for public forecast. Weather courtesy of forecast.io.

Closest aviation weather report (METAR) to Lučko Airfield

Closest report is Zagreb Airport, 9.3 nm (17.3 km) E.

2024/05/26 15:30 (retrieved 24 minutes ago)

LDZA 261530Z VRB02KT 9999 FEW025 SCT040 21/15 Q1018 NOSIG

Closest aviation forecast (TAF) to Lučko Airfield

Closest forecast is Zagreb Airport, 9.3 nm (17.3 km) E.

2024/05/26 12:27 (retrieved 3 hours ago)

TAF LDZA 261125Z 2612/2712 VRB02KT 9999 SCT040 TX20/2614Z TN12/2703Z PROB30 TEMPO 2615/2618 TSRA FEW030CB SCT040 PROB40 2621/2707 0200 FG VV001 PROB30 2707/2708 3500 BR BKN005